createdAt,value
2022-08-12T00:00:38.768Z,19.90
2022-08-12T00:02:04.277Z,19.84
2022-08-12T00:02:40.209Z,19.95
2022-08-12T00:03:39.356Z,20.00
2022-08-12T00:04:40.105Z,19.88
2022-08-12T00:05:39.614Z,19.87
2022-08-12T00:06:41.605Z,19.83
2022-08-12T00:07:39.946Z,19.87
2022-08-12T00:08:40.069Z,19.88
2022-08-12T00:09:40.214Z,19.87
2022-08-12T00:10:40.617Z,19.76
2022-08-12T00:11:40.499Z,19.80
2022-08-12T00:12:41.603Z,19.80
2022-08-12T00:13:41.609Z,19.70
2022-08-12T00:14:41.000Z,19.73
2022-08-12T00:15:41.135Z,19.76
2022-08-12T00:16:41.298Z,19.66
2022-08-12T00:17:42.103Z,19.79
2022-08-12T00:18:41.603Z,19.76
2022-08-12T00:19:41.756Z,19.80
2022-08-12T00:20:42.887Z,19.70
2022-08-12T00:21:42.146Z,19.65
2022-08-12T00:22:42.442Z,19.76
2022-08-12T00:23:42.402Z,19.60
2022-08-12T00:24:42.543Z,19.61
2022-08-12T00:26:19.020Z,19.68
2022-08-12T00:26:43.851Z,19.58
2022-08-12T00:27:44.525Z,19.73
2022-08-12T00:28:43.231Z,19.70
2022-08-12T00:29:47.606Z,19.57
2022-08-12T00:30:44.604Z,19.46
2022-08-12T00:31:44.610Z,19.53
2022-08-12T00:32:54.245Z,19.46
2022-08-12T00:33:51.664Z,19.46
2022-08-12T00:34:45.628Z,19.43
2022-08-12T00:35:44.567Z,19.43
2022-08-12T00:36:44.973Z,19.46
2022-08-12T00:37:44.627Z,19.46
2022-08-12T00:38:44.780Z,19.42
2022-08-12T00:39:44.986Z,19.46
2022-08-12T00:40:46.111Z,19.36
2022-08-12T00:41:45.244Z,19.42
2022-08-12T00:42:46.116Z,19.48
2022-08-12T00:43:46.116Z,19.43
2022-08-12T00:44:48.167Z,19.43
2022-08-12T00:45:45.879Z,19.40
2022-08-12T00:46:46.619Z,19.36
2022-08-12T00:47:46.222Z,19.36
2022-08-12T00:48:46.382Z,19.29
2022-08-12T00:49:50.400Z,19.39
2022-08-12T00:50:46.720Z,19.31
2022-08-12T00:51:47.616Z,19.25
2022-08-12T00:52:46.999Z,19.31
2022-08-12T00:53:47.173Z,19.25
2022-08-12T00:54:47.632Z,19.15
2022-08-12T00:55:47.525Z,19.20
2022-08-12T00:56:48.131Z,19.18
2022-08-12T00:57:47.889Z,19.21
2022-08-12T00:58:48.030Z,19.15
2022-08-12T00:59:48.192Z,19.20
2022-08-12T01:00:49.120Z,19.21
2022-08-12T01:02:01.007Z,19.18
2022-08-12T01:02:50.625Z,19.24
2022-08-12T01:03:48.854Z,19.28
2022-08-12T01:04:49.033Z,19.17
2022-08-12T01:05:49.231Z,19.35
2022-08-12T01:06:50.932Z,19.31
2022-08-12T01:07:49.549Z,19.24
2022-08-12T01:08:49.695Z,19.23
2022-08-12T01:09:49.825Z,19.24
2022-08-12T01:10:49.996Z,19.23
2022-08-12T01:11:50.150Z,19.23
2022-08-12T01:12:50.292Z,19.13
2022-08-12T01:13:51.123Z,19.25
2022-08-12T01:14:50.615Z,19.17
2022-08-12T01:15:50.785Z,19.15
2022-08-12T01:16:50.911Z,19.18
2022-08-12T01:17:51.085Z,19.17
2022-08-12T01:18:51.261Z,19.13
2022-08-12T01:19:51.413Z,19.14
2022-08-12T01:20:51.595Z,19.17
2022-08-12T01:21:51.769Z,19.11
2022-08-12T01:22:51.933Z,19.11
2022-08-12T01:23:52.125Z,19.08
2022-08-12T01:24:52.264Z,19.17
2022-08-12T01:25:55.976Z,19.13
2022-08-12T01:26:52.588Z,19.01
2022-08-12T01:27:53.632Z,18.97
2022-08-12T01:28:53.647Z,19.06
2022-08-12T01:29:53.047Z,19.11
2022-08-12T01:30:53.218Z,19.08
2022-08-12T01:31:54.131Z,19.02
2022-08-12T01:32:53.509Z,19.02
2022-08-12T01:33:53.652Z,19.10
2022-08-12T01:34:53.836Z,18.98
2022-08-12T01:35:57.845Z,18.99
2022-08-12T01:36:56.136Z,19.06
2022-08-12T01:37:55.138Z,18.99
2022-08-12T01:38:55.137Z,19.02
2022-08-12T01:40:33.300Z,18.95
2022-08-12T01:40:56.660Z,18.94
2022-08-12T01:41:55.632Z,18.87
2022-08-12T01:42:55.146Z,18.97
2022-08-12T01:43:56.136Z,19.05
2022-08-12T01:44:55.539Z,18.99
2022-08-12T01:45:57.665Z,18.97
2022-08-12T01:46:56.828Z,18.87
2022-08-12T01:47:56.067Z,18.86
2022-08-12T01:48:56.187Z,18.86
2022-08-12T01:49:56.343Z,18.90
2022-08-12T01:51:00.509Z,18.84
2022-08-12T01:52:14.719Z,18.90
2022-08-12T01:52:57.820Z,18.87
2022-08-12T01:53:57.042Z,18.83
2022-08-12T01:54:57.183Z,18.80
2022-08-12T01:55:57.300Z,18.90
2022-08-12T01:56:57.453Z,18.77
2022-08-12T01:58:01.168Z,18.70
2022-08-12T01:58:58.793Z,18.67
2022-08-12T01:59:58.020Z,18.67
2022-08-12T02:00:59.413Z,18.64
2022-08-12T02:01:58.653Z,18.61
2022-08-12T02:02:58.529Z,18.59
2022-08-12T02:03:59.643Z,18.58
2022-08-12T02:04:59.028Z,18.59
2022-08-12T02:05:59.192Z,18.62
2022-08-12T02:06:59.343Z,18.59
2022-08-12T02:07:59.497Z,18.73
2022-08-12T02:08:59.638Z,18.58
2022-08-12T02:09:59.758Z,18.65
2022-08-12T02:10:59.902Z,18.62
2022-08-12T02:12:03.017Z,18.57
2022-08-12T02:13:01.274Z,18.54
2022-08-12T02:14:00.506Z,18.57
2022-08-12T02:15:00.653Z,18.49
2022-08-12T02:16:00.829Z,18.72
2022-08-12T02:17:01.646Z,18.70
2022-08-12T02:18:01.138Z,18.68
2022-08-12T02:19:01.270Z,18.79
2022-08-12T02:20:01.389Z,18.79
2022-08-12T02:21:01.544Z,18.77
2022-08-12T02:22:01.653Z,18.76
2022-08-12T02:23:01.889Z,18.80
2022-08-12T02:24:02.028Z,18.76
2022-08-12T02:25:03.153Z,18.80
2022-08-12T02:26:02.407Z,18.79
2022-08-12T02:27:03.148Z,18.82
2022-08-12T02:28:05.968Z,18.74
2022-08-12T02:29:04.650Z,18.72
2022-08-12T02:30:03.145Z,18.70
2022-08-12T02:31:03.313Z,18.72
2022-08-12T02:32:03.516Z,18.65
2022-08-12T02:33:03.671Z,18.64
2022-08-12T02:34:04.653Z,18.57
2022-08-12T02:35:04.017Z,18.47
2022-08-12T02:36:04.667Z,18.39
2022-08-12T02:37:04.311Z,18.44
2022-08-12T02:38:04.480Z,18.29
2022-08-12T02:39:04.643Z,18.36
2022-08-12T02:40:04.764Z,18.34
2022-08-12T02:41:04.939Z,18.27
2022-08-12T02:42:05.110Z,18.21
2022-08-12T02:43:05.247Z,18.10
2022-08-12T02:44:05.433Z,18.06
2022-08-12T02:45:05.593Z,18.18
2022-08-12T02:46:08.260Z,18.09
2022-08-12T02:47:07.655Z,18.09
2022-08-12T02:48:07.105Z,18.07
2022-08-12T02:49:06.339Z,18.18
2022-08-12T02:50:06.466Z,18.19
2022-08-12T02:51:06.624Z,18.15
2022-08-12T02:52:07.667Z,18.10
2022-08-12T02:53:07.666Z,18.17
2022-08-12T02:54:07.053Z,18.21
2022-08-12T02:55:07.216Z,18.18
2022-08-12T02:56:07.387Z,18.15
2022-08-12T02:57:08.165Z,18.15
2022-08-12T02:58:09.262Z,18.13
2022-08-12T02:59:07.887Z,18.10
2022-08-12T03:00:08.037Z,18.06
2022-08-12T03:01:08.222Z,18.10
2022-08-12T03:02:09.161Z,18.03
2022-08-12T03:03:08.658Z,17.97
2022-08-12T03:04:20.541Z,18.02
2022-08-12T03:05:09.984Z,18.02
2022-08-12T03:06:09.115Z,18.02
2022-08-12T03:07:10.161Z,18.03
2022-08-12T03:08:12.158Z,17.95
2022-08-12T03:09:10.676Z,17.92
2022-08-12T03:10:16.064Z,17.94
2022-08-12T03:11:14.368Z,17.89
2022-08-12T03:12:10.099Z,17.88
2022-08-12T03:13:11.260Z,17.94
2022-08-12T03:14:10.419Z,17.91
2022-08-12T03:15:11.162Z,17.99
2022-08-12T03:16:10.793Z,18.02
2022-08-12T03:17:11.667Z,17.95
2022-08-12T03:18:26.070Z,18.03
2022-08-12T03:19:12.681Z,17.97
2022-08-12T03:20:32.317Z,17.95
2022-08-12T03:21:11.545Z,17.95
2022-08-12T03:22:11.729Z,17.92
2022-08-12T03:23:19.374Z,17.99
2022-08-12T03:24:13.028Z,17.94
2022-08-12T03:25:12.171Z,17.87
2022-08-12T03:26:12.330Z,17.87
2022-08-12T03:27:12.491Z,17.69
2022-08-12T03:28:23.731Z,17.69
2022-08-12T03:29:13.798Z,17.79
2022-08-12T03:30:12.950Z,17.71
2022-08-12T03:31:13.678Z,17.63
2022-08-12T03:32:36.425Z,17.64
2022-08-12T03:33:14.469Z,17.57
2022-08-12T03:34:14.174Z,17.51
2022-08-12T03:35:36.857Z,17.57
2022-08-12T03:36:15.028Z,17.67
2022-08-12T03:37:14.182Z,17.55
2022-08-12T03:38:14.363Z,17.54
2022-08-12T03:39:14.569Z,17.43
2022-08-12T03:40:14.722Z,17.50
2022-08-12T03:41:15.183Z,17.62
2022-08-12T03:42:14.953Z,17.55
2022-08-12T03:43:15.103Z,17.66
2022-08-12T03:44:16.174Z,17.63
2022-08-12T03:45:15.409Z,17.67
2022-08-12T03:46:15.689Z,17.64
2022-08-12T03:47:15.711Z,17.67
2022-08-12T03:48:19.001Z,17.64
2022-08-12T03:49:16.055Z,17.53
2022-08-12T03:50:16.218Z,17.51
2022-08-12T03:51:17.386Z,17.54
2022-08-12T03:52:17.171Z,17.63
2022-08-12T03:53:16.697Z,17.54
2022-08-12T03:54:16.846Z,17.50
2022-08-12T03:55:17.004Z,17.50
2022-08-12T03:56:17.147Z,17.57
2022-08-12T03:57:18.183Z,17.50
2022-08-12T03:58:17.482Z,17.53
2022-08-12T03:59:17.666Z,17.50
2022-08-12T04:00:23.995Z,17.53
2022-08-12T04:01:19.058Z,17.55
2022-08-12T04:02:18.143Z,17.62
2022-08-12T04:03:18.295Z,17.57
2022-08-12T04:04:19.693Z,17.54
2022-08-12T04:05:21.580Z,17.53
2022-08-12T04:06:18.886Z,17.54
2022-08-12T04:07:20.022Z,17.46
2022-08-12T04:08:19.680Z,17.53
2022-08-12T04:09:20.208Z,17.47
2022-08-12T04:10:19.443Z,17.53
2022-08-12T04:11:19.599Z,17.55
2022-08-12T04:12:20.686Z,17.50
2022-08-12T04:13:19.947Z,17.54
2022-08-12T04:14:20.097Z,17.53
2022-08-12T04:15:20.699Z,17.67
2022-08-12T04:16:20.463Z,17.54
2022-08-12T04:17:20.599Z,17.55
2022-08-12T04:18:20.750Z,17.59
2022-08-12T04:19:20.884Z,17.59
2022-08-12T04:20:21.043Z,17.59
2022-08-12T04:21:21.199Z,17.67
2022-08-12T04:22:21.355Z,17.63
2022-08-12T04:23:21.500Z,17.64
2022-08-12T04:24:21.654Z,17.66
2022-08-12T04:25:21.777Z,17.63
2022-08-12T04:26:22.693Z,17.67
2022-08-12T04:27:22.052Z,17.59
2022-08-12T04:28:22.201Z,17.64
2022-08-12T04:29:22.341Z,17.64
2022-08-12T04:30:32.157Z,17.63
2022-08-12T04:31:23.777Z,17.62
2022-08-12T04:32:23.202Z,17.62
2022-08-12T04:33:23.232Z,17.59
2022-08-12T04:34:23.348Z,17.54
2022-08-12T04:35:24.188Z,17.46
2022-08-12T04:36:24.192Z,17.53
2022-08-12T04:37:23.792Z,17.44
2022-08-12T04:38:23.969Z,17.48
2022-08-12T04:39:24.125Z,17.44
2022-08-12T04:40:28.247Z,17.40
2022-08-12T04:41:25.190Z,17.43
2022-08-12T04:42:25.191Z,17.30
2022-08-12T04:43:59.944Z,17.43
2022-08-12T04:44:25.926Z,17.43
2022-08-12T04:45:25.153Z,17.51
2022-08-12T04:46:28.890Z,17.57
2022-08-12T04:47:27.520Z,17.59
2022-08-12T04:48:25.721Z,17.69
2022-08-12T04:49:26.206Z,17.64
2022-08-12T04:50:34.802Z,17.74
2022-08-12T04:51:28.196Z,17.82
2022-08-12T04:52:26.519Z,17.82
2022-08-12T04:53:26.740Z,17.78
2022-08-12T04:54:26.887Z,17.88
2022-08-12T04:55:27.695Z,17.87
2022-08-12T04:56:27.201Z,17.87
2022-08-12T04:57:28.305Z,17.94
2022-08-12T04:58:29.183Z,17.99
2022-08-12T04:59:27.758Z,18.00
2022-08-12T05:00:28.697Z,18.02
2022-08-12T05:01:28.076Z,17.92
2022-08-12T05:02:28.236Z,18.00
2022-08-12T05:03:28.379Z,17.97
2022-08-12T05:04:29.524Z,18.02
2022-08-12T05:05:31.434Z,17.97
2022-08-12T05:06:29.798Z,18.09
2022-08-12T05:07:28.959Z,17.99
2022-08-12T05:08:29.152Z,18.03
2022-08-12T05:09:59.334Z,18.02
2022-08-12T05:10:33.572Z,18.07
2022-08-12T05:11:30.213Z,18.18
2022-08-12T05:12:29.870Z,18.21
2022-08-12T05:13:30.025Z,18.28
2022-08-12T05:14:33.342Z,18.29
2022-08-12T05:15:32.209Z,18.33
2022-08-12T05:16:31.148Z,18.43
2022-08-12T05:17:30.833Z,18.43
2022-08-12T05:18:31.008Z,18.40
2022-08-12T05:19:31.155Z,18.49
2022-08-12T05:20:31.279Z,18.50
2022-08-12T05:21:31.434Z,18.52
2022-08-12T05:22:31.576Z,18.64
2022-08-12T05:23:32.681Z,18.72
2022-08-12T05:24:31.895Z,18.82
2022-08-12T05:25:32.028Z,18.80
2022-08-12T05:26:32.713Z,18.82
2022-08-12T05:27:32.363Z,18.82
2022-08-12T05:28:32.484Z,18.97
2022-08-12T05:30:06.334Z,19.10
2022-08-12T05:30:33.925Z,19.20
2022-08-12T05:31:41.575Z,19.20
2022-08-12T05:32:34.391Z,19.17
2022-08-12T05:33:34.210Z,19.21
2022-08-12T05:34:33.702Z,19.29
2022-08-12T05:35:33.961Z,19.42
2022-08-12T05:36:34.707Z,19.51
2022-08-12T05:37:35.226Z,19.63
2022-08-12T05:38:35.214Z,19.65
2022-08-12T05:39:34.759Z,19.86
2022-08-12T05:40:34.934Z,19.84
2022-08-12T05:41:35.088Z,19.88
2022-08-12T05:42:36.208Z,20.00
2022-08-12T05:43:35.557Z,20.05
2022-08-12T05:44:35.668Z,20.10
2022-08-12T05:45:39.364Z,20.27
2022-08-12T05:46:36.910Z,20.21
2022-08-12T05:47:52.987Z,20.41
2022-08-12T05:48:37.253Z,20.34
2022-08-12T05:49:36.465Z,20.53
2022-08-12T05:50:36.607Z,20.59
2022-08-12T05:51:39.904Z,20.68
2022-08-12T05:52:36.908Z,20.71
2022-08-12T05:53:37.028Z,20.74
2022-08-12T05:54:56.508Z,20.72
2022-08-12T05:55:39.359Z,20.71
2022-08-12T05:56:38.214Z,20.66
2022-08-12T05:57:37.820Z,20.79
2022-08-12T05:58:37.947Z,20.72
2022-08-12T05:59:38.235Z,20.81
2022-08-12T06:00:38.215Z,20.87
2022-08-12T06:02:12.687Z,20.87
2022-08-12T06:02:39.778Z,20.84
2022-08-12T06:03:38.786Z,20.95
2022-08-12T06:04:38.907Z,20.90
2022-08-12T06:05:51.945Z,20.91
2022-08-12T06:06:41.227Z,21.01
2022-08-12T06:08:00.041Z,21.05
2022-08-12T06:08:40.661Z,21.06
2022-08-12T06:09:39.931Z,21.14
2022-08-12T06:10:40.079Z,21.08
2022-08-12T06:11:40.724Z,21.11
2022-08-12T06:12:41.710Z,21.26
2022-08-12T06:13:53.196Z,21.39
2022-08-12T06:14:41.859Z,21.50
2022-08-12T06:15:40.979Z,21.46
2022-08-12T06:16:41.108Z,21.59
2022-08-12T06:17:41.247Z,21.71
2022-08-12T06:18:41.381Z,21.81
2022-08-12T06:20:27.694Z,21.81
2022-08-12T06:20:42.738Z,21.79
2022-08-12T06:21:41.852Z,21.91
2022-08-12T06:22:42.252Z,21.99
2022-08-12T06:23:42.944Z,22.17
2022-08-12T06:24:43.274Z,22.34
2022-08-12T06:25:42.392Z,22.29
2022-08-12T06:26:42.538Z,22.41
2022-08-12T06:28:05.901Z,22.49
2022-08-12T06:28:43.873Z,22.47
2022-08-12T06:30:09.446Z,22.53
2022-08-12T06:30:49.701Z,22.65
2022-08-12T06:31:44.383Z,22.65
2022-08-12T06:32:51.710Z,22.68
2022-08-12T06:34:01.204Z,22.77
2022-08-12T06:35:26.573Z,22.82
2022-08-12T06:35:48.553Z,23.02
2022-08-12T06:36:44.209Z,23.01
2022-08-12T06:37:44.365Z,23.01
2022-08-12T06:38:46.482Z,23.02
2022-08-12T06:39:44.820Z,23.07
2022-08-12T06:40:44.873Z,23.14
2022-08-12T06:42:05.024Z,23.09
2022-08-12T06:42:46.642Z,23.08
2022-08-12T06:44:06.400Z,23.14
2022-08-12T06:44:47.237Z,23.35
2022-08-12T06:45:46.858Z,23.40
2022-08-12T06:46:45.938Z,23.29
2022-08-12T06:47:46.090Z,23.43
2022-08-12T06:48:46.217Z,23.57
2022-08-12T06:49:47.376Z,23.58
2022-08-12T06:50:46.533Z,23.70
2022-08-12T06:51:53.539Z,23.76
2022-08-12T06:52:48.243Z,23.87
2022-08-12T06:53:47.738Z,24.04
2022-08-12T06:54:47.362Z,24.23
2022-08-12T06:55:57.886Z,24.47
2022-08-12T06:57:57.395Z,24.67
2022-08-12T06:58:05.186Z,24.77
2022-08-12T06:58:49.161Z,25.00
2022-08-12T06:59:48.278Z,25.35
2022-08-12T07:00:48.485Z,25.75
2022-08-12T07:01:50.859Z,25.98
2022-08-12T07:02:48.908Z,26.24
2022-08-12T07:03:49.058Z,26.68
2022-08-12T07:04:49.207Z,27.04
2022-08-12T07:05:50.883Z,27.38
2022-08-12T07:06:50.240Z,27.01
2022-08-12T07:07:49.730Z,26.69
2022-08-12T07:08:49.884Z,26.74
2022-08-12T07:10:04.050Z,26.79
2022-08-12T07:10:51.746Z,26.79
2022-08-12T07:11:50.847Z,26.81
2022-08-12T07:12:50.759Z,26.76
2022-08-12T07:14:11.749Z,26.35
2022-08-12T07:14:51.979Z,26.35
2022-08-12T07:15:51.744Z,26.44
2022-08-12T07:16:51.380Z,26.72
2022-08-12T07:17:51.554Z,26.74
2022-08-12T07:18:51.692Z,26.77
2022-08-12T07:19:51.993Z,26.52
2022-08-12T07:20:53.255Z,26.58
2022-08-12T07:21:59.655Z,26.35
2022-08-12T07:22:53.322Z,26.36
2022-08-12T07:23:53.246Z,26.37
2022-08-12T07:24:52.619Z,26.35
2022-08-12T07:25:56.506Z,26.25
2022-08-12T07:26:55.766Z,26.37
2022-08-12T07:27:53.263Z,26.65
2022-08-12T07:28:53.441Z,26.80
2022-08-12T07:29:58.126Z,26.84
2022-08-12T07:30:55.252Z,26.61
2022-08-12T07:31:54.753Z,26.40
2022-08-12T07:32:56.507Z,26.32
2022-08-12T07:33:55.754Z,26.31
2022-08-12T07:34:54.357Z,26.24
2022-08-12T07:35:55.256Z,26.11
2022-08-12T07:36:54.597Z,26.02
2022-08-12T07:37:54.757Z,26.15
2022-08-12T07:38:54.885Z,26.15
2022-08-12T07:40:00.248Z,26.35
2022-08-12T07:40:56.222Z,26.42
2022-08-12T07:41:56.255Z,26.49
2022-08-12T07:42:55.605Z,26.65
2022-08-12T07:43:55.780Z,26.76
2022-08-12T07:44:56.105Z,26.96
2022-08-12T07:45:56.759Z,27.17
2022-08-12T07:46:56.363Z,27.06
2022-08-12T07:47:56.505Z,26.94
2022-08-12T07:48:56.676Z,26.92
2022-08-12T07:50:04.589Z,26.94
2022-08-12T07:50:57.979Z,26.87
2022-08-12T07:51:57.763Z,26.86
2022-08-12T07:52:58.382Z,26.84
2022-08-12T07:54:00.855Z,26.81
2022-08-12T07:54:58.646Z,26.86
2022-08-12T07:55:58.272Z,26.86
2022-08-12T07:56:58.034Z,26.92
2022-08-12T07:57:58.220Z,26.89
2022-08-12T07:58:59.597Z,26.87
2022-08-12T07:59:59.260Z,26.83
2022-08-12T08:00:58.747Z,26.57
2022-08-12T08:01:58.979Z,26.47
2022-08-12T08:02:59.149Z,26.31
2022-08-12T08:03:59.300Z,26.29
2022-08-12T08:05:00.275Z,26.32
2022-08-12T08:05:59.701Z,26.37
2022-08-12T08:06:59.876Z,26.35
2022-08-12T08:08:00.025Z,26.46
2022-08-12T08:09:00.202Z,26.46
2022-08-12T08:10:01.272Z,26.49
2022-08-12T08:11:04.165Z,26.47
2022-08-12T08:12:02.273Z,26.42
2022-08-12T08:13:00.896Z,26.47
2022-08-12T08:14:01.775Z,26.79
2022-08-12T08:15:02.273Z,26.83
2022-08-12T08:16:03.313Z,27.02
2022-08-12T08:17:02.765Z,27.02
2022-08-12T08:18:01.925Z,27.04
2022-08-12T08:19:02.061Z,27.26
2022-08-12T08:20:04.438Z,27.20
2022-08-12T08:21:02.406Z,27.29
2022-08-12T08:22:02.563Z,27.05
2022-08-12T08:23:02.772Z,27.04
2022-08-12T08:24:05.291Z,27.20
2022-08-12T08:25:04.128Z,27.35
2022-08-12T08:26:03.284Z,27.13
2022-08-12T08:27:03.434Z,27.09
2022-08-12T08:28:03.801Z,27.06
2022-08-12T08:29:03.749Z,27.11
2022-08-12T08:30:03.976Z,27.14
2022-08-12T08:31:04.147Z,27.23
2022-08-12T08:32:05.273Z,27.20
2022-08-12T08:33:15.550Z,27.01
2022-08-12T08:34:33.736Z,26.89
2022-08-12T08:35:07.779Z,26.87
2022-08-12T08:36:05.780Z,26.83
2022-08-12T08:37:07.816Z,26.92
2022-08-12T08:38:06.508Z,27.05
2022-08-12T08:39:05.662Z,26.98
2022-08-12T08:40:05.826Z,26.98
2022-08-12T08:41:05.994Z,26.94
2022-08-12T08:42:16.363Z,26.96
2022-08-12T08:43:08.282Z,27.11
2022-08-12T08:44:07.281Z,27.10
2022-08-12T08:45:07.282Z,27.14
2022-08-12T08:46:06.755Z,27.01
2022-08-12T08:47:06.929Z,26.98
2022-08-12T08:48:07.802Z,26.87
2022-08-12T08:49:07.314Z,27.02
2022-08-12T08:50:09.280Z,27.09
2022-08-12T08:51:07.615Z,27.17
2022-08-12T08:52:07.748Z,27.24
2022-08-12T08:53:07.917Z,27.42
2022-08-12T08:54:08.060Z,27.39
2022-08-12T08:55:08.789Z,27.54
2022-08-12T08:56:08.424Z,27.54
2022-08-12T08:57:08.611Z,27.54
2022-08-12T08:58:08.768Z,27.59
2022-08-12T08:59:08.904Z,27.73
2022-08-12T09:00:09.021Z,27.64
2022-08-12T09:01:09.202Z,27.28
2022-08-12T09:02:09.831Z,27.36
2022-08-12T09:04:21.305Z,27.38
2022-08-12T09:05:12.845Z,27.17
2022-08-12T09:05:15.111Z,27.14
2022-08-12T09:06:11.040Z,27.04
2022-08-12T09:07:17.039Z,27.09
2022-08-12T09:10:30.431Z,27.20
2022-08-12T09:11:12.793Z,27.06
2022-08-12T09:12:13.188Z,27.48
2022-08-12T09:13:23.340Z,27.53
2022-08-12T09:14:18.702Z,27.64
2022-08-12T09:15:16.781Z,27.74
2022-08-12T09:16:13.801Z,27.84
2022-08-12T09:17:12.317Z,27.94
2022-08-12T09:18:12.794Z,27.85
2022-08-12T09:20:15.929Z,28.28
2022-08-12T09:21:12.656Z,28.28
2022-08-12T09:22:12.813Z,28.10
2022-08-12T09:23:58.735Z,27.94
2022-08-12T09:24:16.325Z,27.62
2022-08-12T09:25:25.790Z,27.51
2022-08-12T09:26:14.413Z,27.28
2022-08-12T09:27:13.658Z,27.42
2022-08-12T09:28:13.858Z,27.47
2022-08-12T09:29:14.012Z,27.43
2022-08-12T09:30:14.802Z,27.50
2022-08-12T09:32:08.042Z,27.33
2022-08-12T09:32:57.129Z,27.24
2022-08-12T09:33:19.186Z,27.26
2022-08-12T09:34:29.399Z,27.51
2022-08-12T09:35:22.113Z,27.74
2022-08-12T09:36:16.224Z,27.94
2022-08-12T09:37:19.312Z,27.95
2022-08-12T09:38:28.271Z,28.03
2022-08-12T09:40:04.448Z,27.84
2022-08-12T09:40:57.045Z,27.94
2022-08-12T09:42:33.734Z,27.94
2022-08-12T09:42:40.830Z,27.94
2022-08-12T09:43:18.929Z,27.84
2022-08-12T09:44:38.851Z,27.54
2022-08-12T09:45:23.497Z,27.53
2022-08-12T09:46:25.169Z,27.67
2022-08-12T09:47:18.356Z,27.59
2022-08-12T09:48:22.325Z,27.73
2022-08-12T09:49:17.709Z,27.76
2022-08-12T09:50:20.589Z,27.67
2022-08-12T09:51:22.236Z,27.57
2022-08-12T09:52:18.811Z,27.67
2022-08-12T09:53:18.335Z,27.77
2022-08-12T09:54:32.760Z,27.91
2022-08-12T09:56:05.748Z,27.73
2022-08-12T09:56:57.158Z,27.31
2022-08-12T09:58:44.564Z,27.42
2022-08-12T09:58:58.169Z,27.41
2022-08-12T10:00:14.954Z,27.43
2022-08-12T10:00:28.043Z,27.42
2022-08-12T10:01:23.181Z,27.32
2022-08-12T10:02:44.372Z,27.20
2022-08-12T10:03:32.009Z,27.31
2022-08-12T10:04:21.457Z,27.36
2022-08-12T10:05:20.753Z,27.32
2022-08-12T10:06:31.833Z,27.36
2022-08-12T10:07:25.209Z,27.57
2022-08-12T10:08:22.040Z,27.82
2022-08-12T10:09:21.183Z,27.88
2022-08-12T10:10:24.992Z,27.76
2022-08-12T10:11:21.501Z,27.84
2022-08-12T10:12:31.183Z,27.69
2022-08-12T10:13:35.403Z,27.71
2022-08-12T10:14:34.683Z,27.76
2022-08-12T10:16:02.225Z,27.88
2022-08-12T10:16:24.324Z,27.92
2022-08-12T10:17:23.385Z,28.03
2022-08-12T10:18:22.798Z,28.10
2022-08-12T10:19:23.334Z,27.89
2022-08-12T10:20:24.067Z,27.80
2022-08-12T10:21:23.919Z,27.77
2022-08-12T10:22:39.662Z,27.74
2022-08-12T10:23:40.333Z,27.85
2022-08-12T10:24:24.727Z,27.84
2022-08-12T10:25:23.848Z,27.73
2022-08-12T10:26:38.115Z,27.69
2022-08-12T10:27:25.823Z,27.98
2022-08-12T10:28:25.567Z,28.13
2022-08-12T10:30:03.197Z,28.14
2022-08-12T10:30:41.921Z,28.09
2022-08-12T10:31:26.064Z,28.01
2022-08-12T10:32:42.894Z,27.99
2022-08-12T10:33:30.921Z,27.99
2022-08-12T10:34:27.069Z,28.03
2022-08-12T10:35:25.680Z,28.16
2022-08-12T10:36:36.227Z,28.16
2022-08-12T10:38:34.892Z,28.17
2022-08-12T10:38:35.715Z,28.21
2022-08-12T10:40:03.176Z,28.17
2022-08-12T10:40:31.855Z,28.09
2022-08-12T10:41:57.840Z,28.03
2022-08-12T10:42:29.304Z,27.84
2022-08-12T10:43:28.135Z,27.54
2022-08-12T10:44:28.259Z,27.50
2022-08-12T10:45:27.431Z,27.53
2022-08-12T10:46:30.481Z,27.61
2022-08-12T10:48:07.713Z,27.89
2022-08-12T10:48:34.641Z,27.88
2022-08-12T10:50:06.828Z,27.91
2022-08-12T10:50:56.245Z,27.95
2022-08-12T10:52:04.804Z,27.91
2022-08-12T10:52:34.041Z,27.91
2022-08-12T10:53:45.907Z,27.82
2022-08-12T10:54:30.843Z,27.88
2022-08-12T10:55:29.435Z,28.10
2022-08-12T10:56:34.722Z,28.10
2022-08-12T10:57:50.391Z,28.29
2022-08-12T10:58:31.806Z,28.32
2022-08-12T11:00:29.106Z,28.51
2022-08-12T11:00:35.802Z,28.68
2022-08-12T11:04:14.658Z,28.80
2022-08-12T11:04:18.889Z,28.72
2022-08-12T11:04:35.793Z,28.85
2022-08-12T11:04:45.272Z,28.77
2022-08-12T11:07:05.237Z,28.54
2022-08-12T11:07:10.201Z,28.56
2022-08-12T11:08:38.193Z,28.80
2022-08-12T11:08:42.210Z,28.81
2022-08-12T11:09:51.348Z,28.87
2022-08-12T11:10:33.362Z,29.00
2022-08-12T11:12:35.370Z,28.87
2022-08-12T11:12:56.078Z,29.03
2022-08-12T11:13:45.813Z,29.03
2022-08-12T11:14:49.157Z,28.82
2022-08-12T11:16:03.823Z,28.72
2022-08-12T11:16:34.624Z,28.78
2022-08-12T11:17:53.403Z,28.69
2022-08-12T11:18:34.975Z,28.65
2022-08-12T11:19:34.123Z,28.60
2022-08-12T11:20:34.361Z,28.66
2022-08-12T11:21:56.327Z,28.84
2022-08-12T11:22:35.865Z,28.84
2022-08-12T11:23:37.493Z,28.90
2022-08-12T11:24:35.867Z,28.97
2022-08-12T11:25:53.740Z,28.95
2022-08-12T11:26:36.468Z,29.08
2022-08-12T11:27:35.694Z,29.11
2022-08-12T11:28:37.262Z,29.15
2022-08-12T11:30:06.537Z,29.18
2022-08-12T11:30:37.088Z,29.22
2022-08-12T11:31:40.646Z,29.22
2022-08-12T11:32:38.419Z,29.13
2022-08-12T11:34:05.277Z,29.00
2022-08-12T11:34:52.494Z,28.87
2022-08-12T11:35:37.855Z,28.93
2022-08-12T11:36:39.162Z,28.88
2022-08-12T11:37:58.233Z,28.82
2022-08-12T11:38:38.828Z,29.13
2022-08-12T11:40:42.577Z,29.11
2022-08-12T11:41:37.987Z,29.13
2022-08-12T11:42:39.853Z,29.06
2022-08-12T11:43:50.420Z,28.96
2022-08-12T11:44:43.228Z,28.81
2022-08-12T11:45:38.980Z,28.69
2022-08-12T11:46:38.889Z,28.73
2022-08-12T11:47:40.246Z,28.47
2022-08-12T11:48:52.293Z,28.53
2022-08-12T11:49:40.373Z,28.59
2022-08-12T11:50:41.999Z,28.63
2022-08-12T11:51:40.807Z,28.72
2022-08-12T11:52:56.556Z,28.78
2022-08-12T11:53:58.376Z,28.82
2022-08-12T11:54:42.336Z,28.81
2022-08-12T11:55:46.739Z,28.91
2022-08-12T11:56:42.919Z,29.01
2022-08-12T11:58:19.862Z,29.08
2022-08-12T12:02:00.841Z,29.34
2022-08-12T12:02:43.620Z,29.40
2022-08-12T12:03:45.888Z,29.25
2022-08-12T12:04:42.544Z,29.13
2022-08-12T12:05:45.699Z,29.04
2022-08-12T12:06:42.855Z,28.97
2022-08-12T12:08:40.879Z,29.01
2022-08-12T12:08:49.738Z,29.08
2022-08-12T12:09:53.432Z,29.26
2022-08-12T12:10:44.671Z,29.29
2022-08-12T12:11:48.923Z,29.43
2022-08-12T12:12:50.136Z,29.56
2022-08-12T12:14:08.866Z,29.70
2022-08-12T12:14:45.348Z,29.53
2022-08-12T12:15:45.864Z,29.40
2022-08-12T12:16:48.202Z,29.35
2022-08-12T12:17:45.923Z,29.28
2022-08-12T12:18:45.042Z,29.34
2022-08-12T12:19:46.285Z,29.35
2022-08-12T12:20:45.347Z,29.37
2022-08-12T12:21:48.323Z,29.52
2022-08-12T12:22:45.870Z,29.55
2022-08-12T12:23:47.060Z,29.41
2022-08-12T12:24:46.159Z,29.49
2022-08-12T12:25:59.243Z,29.55
2022-08-12T12:26:47.500Z,29.45
2022-08-12T12:28:04.792Z,29.55
2022-08-12T12:28:54.485Z,29.89
2022-08-12T12:30:17.928Z,30.18
2022-08-12T12:30:54.876Z,30.49
2022-08-12T12:32:10.876Z,30.36
2022-08-12T12:32:53.273Z,30.24
2022-08-12T12:33:57.913Z,29.99
2022-08-12T12:35:17.915Z,29.60
2022-08-12T12:36:17.020Z,29.90
2022-08-12T12:36:54.744Z,30.05
2022-08-12T12:38:04.208Z,30.29
2022-08-12T12:38:50.394Z,30.27
2022-08-12T12:39:50.219Z,30.02
2022-08-12T12:40:50.280Z,29.70
2022-08-12T12:42:43.280Z,29.50
2022-08-12T12:42:57.812Z,29.55
2022-08-12T12:43:56.635Z,29.65
2022-08-12T12:44:53.562Z,29.65
2022-08-12T12:45:50.390Z,29.72
2022-08-12T12:46:50.184Z,29.77
2022-08-12T12:47:50.332Z,29.81
2022-08-12T12:48:50.464Z,29.75
2022-08-12T12:49:53.512Z,29.60
2022-08-12T12:50:51.671Z,29.43
2022-08-12T12:52:18.489Z,29.44
2022-08-12T12:52:52.164Z,29.31
2022-08-12T12:54:06.228Z,29.35
2022-08-12T12:54:53.146Z,29.26
2022-08-12T12:55:52.380Z,29.13
2022-08-12T12:56:51.939Z,29.31
2022-08-12T12:58:00.747Z,29.40
2022-08-12T12:58:53.405Z,29.41
2022-08-12T12:59:56.110Z,29.35
2022-08-12T13:00:52.585Z,29.38
2022-08-12T13:01:52.843Z,29.49